Hiyodori — JD2366 — position and weather

sailwx.info

Track history (hours):
 
Tides and Currents Weather Stations Pressure Air Temp Water Temp Dewpoint Dewpoint Depression Visibility Wind Speed Wind Dir Waves Ship Positions

Hiyodori

Last reported at 2016-Feb-13 01:32 UTC. Time now 2016-Feb-13 02:38 UTC.
Position N 35°02' E 138°31'.

Length 88 m; draft 3.6 m.

Type: Cargo ship. MMSI: 431000132.

Date/timePositionNaut miles runAvg speedWind from/ knotsBaromVisibWave heightAir tempDewpointWater temp
2016-Feb-13 01:32N 35°02' E 138°31'0 0.1
2016-Feb-13 00:30N 35°02' E 138°30'0 0.0
2016-Feb-12 18:17N 35°02' E 138°30'0 0.0
2016-Feb-12 17:28N 35°02' E 138°30'48 5.3
2016-Feb-12 08:27N 35°01' E 139°29'1112.3
2016-Feb-12 07:32N 35°07' E 139°41'1110.8
2016-Feb-12 06:33N 35°17' E 139°45'8 8.0
2016-Feb-12 05:33N 35°24' E 139°41'2 1.9
2016-Feb-12 04:33N 35°26' E 139°41'1 0.8
2016-Feb-12 03:34N 35°27' E 139°41'4 4.1
2016-Feb-12 02:33N 35°29' E 139°45'5 4.7
2016-Feb-12 01:33N 35°25' E 139°46'1010.5
2016-Feb-12 00:33N 35°14' E 139°47'7 0.2
2016-Feb-10 07:33N 35°08' E 139°44'1111.0
2016-Feb-10 06:33N 35°19' E 139°43'4 3.7
2016-Feb-10 05:33N 35°23' E 139°43'5 5.1
2016-Feb-10 04:34N 35°28' E 139°42'1 1.1
2016-Feb-10 03:33N 35°27' E 139°43'0 0.4
2016-Feb-10 02:33N 35°26' E 139°43'0 0.0
2016-Feb-10 01:33N 35°26' E 139°43'1 1.3
2016-Feb-10 00:33N 35°27' E 139°42'1 0.9
2016-Feb-09 23:33N 35°27' E 139°40'0 0.4
2016-Feb-09 22:33N 35°27' E 139°41'3 3.4
2016-Feb-09 21:33N 35°23' E 139°40'0 0.0
2016-Feb-09 20:33N 35°23' E 139°40'0 0.0
2016-Feb-09 19:33N 35°23' E 139°40'0 0.0
2016-Feb-09 18:33N 35°23' E 139°40'0 0.0
2016-Feb-09 17:33N 35°23' E 139°40'0 0.0
2016-Feb-09 16:33N 35°24' E 139°40'0 0.0
2016-Feb-09 15:33N 35°23' E 139°40'0 0.0
2016-Feb-09 14:33N 35°23' E 139°40'0 0.0
2016-Feb-09 13:33N 35°24' E 139°40'0 0.0
2016-Feb-09 12:33N 35°24' E 139°40'0 0.0
2016-Feb-09 11:33N 35°24' E 139°40'0 0.0
2016-Feb-09 10:33N 35°24' E 139°40'0 0.0
2016-Feb-09 09:33N 35°24' E 139°40'0 0.1
2016-Feb-09 08:33N 35°24' E 139°40'1 1.0
2016-Feb-09 07:33N 35°24' E 139°41'0 0.0
2016-Feb-09 06:33N 35°24' E 139°41'0 0.0
2016-Feb-09 05:33N 35°24' E 139°41'0 0.0
2016-Feb-09 04:33N 35°24' E 139°41'1 0.9
2016-Feb-09 03:33N 35°24' E 139°40'0 0.1
2016-Feb-09 02:33N 35°24' E 139°40'0 0.0
2016-Feb-09 01:33N 35°24' E 139°40'0 0.1
2016-Feb-09 00:33N 35°24' E 139°40'0 0.0
2016-Feb-08 23:33N 35°24' E 139°40'0 0.0
2016-Feb-08 22:33N 35°24' E 139°40'0 0.0
2016-Feb-08 21:33N 35°24' E 139°40'6 5.6
2016-Feb-08 20:33N 35°19' E 139°44'1311.3
2016-Feb-08 19:23N 35°06' E 139°44'  
2016-Feb-06 07:34N 34°05' E 135°00'1313.0
2016-Feb-06 06:33N 34°18' E 134°59'1212.2
2016-Feb-06 05:34N 34°27' E 135°09'1212.1
2016-Feb-06 04:34N 34°38' E 135°16'2 2.1
2016-Feb-06 03:34N 34°39' E 135°15'0 0.0
2016-Feb-06 02:34N 34°39' E 135°15'2 2.2
2016-Feb-06 01:34N 34°41' E 135°16'1 0.7
2016-Feb-06 00:33N 34°41' E 135°16'2 1.6
2016-Feb-05 23:33N 34°39' E 135°15'2 2.5
2016-Feb-05 22:34N 34°37' E 135°16'0 0.0
2016-Feb-05 21:34N 34°37' E 135°16'0 0.1
2016-Feb-05 20:34N 34°37' E 135°16'1211.8
2016-Feb-05 19:33N 34°36' E 135°02'10 0.8
2016-Feb-05 07:28N 34°34' E 134°50'1212.2
2016-Feb-05 06:28N 34°36' E 135°05'910.4
2016-Feb-05 05:33N 34°39' E 135°16'1 1.0
2016-Feb-05 04:33N 34°39' E 135°15'0 0.0
2016-Feb-05 03:33N 34°39' E 135°15'0 0.3
2016-Feb-05 02:33N 34°39' E 135°15'1 0.9
2016-Feb-05 01:32N 34°40' E 135°14'1 1.1
2016-Feb-05 00:33N 34°40' E 135°15'2 1.6
2016-Feb-04 23:33N 34°41' E 135°17'4 3.6
2016-Feb-04 22:33N 34°37' E 135°18'0 0.0
2016-Feb-04 21:33N 34°37' E 135°18'0 0.0
2016-Feb-04 20:33N 34°37' E 135°18'0 0.0
2016-Feb-04 19:33N 34°37' E 135°18'0 0.0
2016-Feb-04 18:33N 34°37' E 135°18'4 4.3
2016-Feb-04 17:33N 34°36' E 135°13'22 0.6
2016-Feb-03 07:06N 34°33' E 134°46'813.4
2016-Feb-03 06:32N 34°36' E 134°55'1212.0
2016-Feb-03 05:33N 34°36' E 135°09'8 7.7
2016-Feb-03 04:33N 34°41' E 135°17'2 1.9
2016-Feb-03 03:33N 34°40' E 135°19'1 0.8
2016-Feb-03 02:33N 34°39' E 135°19'  
Track history (hours):
 
Tides and Currents Weather Stations Pressure Air Temp Water Temp Dewpoint Dewpoint Depression Visibility Wind Speed Wind Dir Waves Ship Positions

Hiyodori

Last reported at 2016-Feb-13 01:32 UTC. Time now 2016-Feb-13 02:38 UTC.
Position N 35°02' E 138°31'.

Length 88 m; draft 3.6 m.

Type: Cargo ship. MMSI: 431000132.

Date/timePositionNaut miles runAvg speedWind from/ knotsBaromVisibWave heightAir tempDewpointWater temp
2016-Feb-13 01:32N 35°02' E 138°31'0 0.1
2016-Feb-13 00:30N 35°02' E 138°30'0 0.0
2016-Feb-12 18:17N 35°02' E 138°30'0 0.0
2016-Feb-12 17:28N 35°02' E 138°30'48 5.3
2016-Feb-12 08:27N 35°01' E 139°29'1112.3
2016-Feb-12 07:32N 35°07' E 139°41'1110.8
2016-Feb-12 06:33N 35°17' E 139°45'8 8.0
2016-Feb-12 05:33N 35°24' E 139°41'2 1.9
2016-Feb-12 04:33N 35°26' E 139°41'1 0.8
2016-Feb-12 03:34N 35°27' E 139°41'4 4.1
2016-Feb-12 02:33N 35°29' E 139°45'5 4.7
2016-Feb-12 01:33N 35°25' E 139°46'1010.5
2016-Feb-12 00:33N 35°14' E 139°47'7 0.2
2016-Feb-10 07:33N 35°08' E 139°44'1111.0
2016-Feb-10 06:33N 35°19' E 139°43'4 3.7
2016-Feb-10 05:33N 35°23' E 139°43'5 5.1
2016-Feb-10 04:34N 35°28' E 139°42'1 1.1
2016-Feb-10 03:33N 35°27' E 139°43'0 0.4
2016-Feb-10 02:33N 35°26' E 139°43'0 0.0
2016-Feb-10 01:33N 35°26' E 139°43'1 1.3
2016-Feb-10 00:33N 35°27' E 139°42'1 0.9
2016-Feb-09 23:33N 35°27' E 139°40'0 0.4
2016-Feb-09 22:33N 35°27' E 139°41'3 3.4
2016-Feb-09 21:33N 35°23' E 139°40'0 0.0
2016-Feb-09 20:33N 35°23' E 139°40'0 0.0
2016-Feb-09 19:33N 35°23' E 139°40'0 0.0
2016-Feb-09 18:33N 35°23' E 139°40'0 0.0
2016-Feb-09 17:33N 35°23' E 139°40'0 0.0
2016-Feb-09 16:33N 35°24' E 139°40'0 0.0
2016-Feb-09 15:33N 35°23' E 139°40'0 0.0
2016-Feb-09 14:33N 35°23' E 139°40'0 0.0
2016-Feb-09 13:33N 35°24' E 139°40'0 0.0
2016-Feb-09 12:33N 35°24' E 139°40'0 0.0
2016-Feb-09 11:33N 35°24' E 139°40'0 0.0
2016-Feb-09 10:33N 35°24' E 139°40'0 0.0
2016-Feb-09 09:33N 35°24' E 139°40'0 0.1
2016-Feb-09 08:33N 35°24' E 139°40'1 1.0
2016-Feb-09 07:33N 35°24' E 139°41'0 0.0
2016-Feb-09 06:33N 35°24' E 139°41'0 0.0
2016-Feb-09 05:33N 35°24' E 139°41'0 0.0
2016-Feb-09 04:33N 35°24' E 139°41'1 0.9
2016-Feb-09 03:33N 35°24' E 139°40'0 0.1
2016-Feb-09 02:33N 35°24' E 139°40'0 0.0
2016-Feb-09 01:33N 35°24' E 139°40'0 0.1
2016-Feb-09 00:33N 35°24' E 139°40'0 0.0
2016-Feb-08 23:33N 35°24' E 139°40'0 0.0
2016-Feb-08 22:33N 35°24' E 139°40'0 0.0
2016-Feb-08 21:33N 35°24' E 139°40'6 5.6
2016-Feb-08 20:33N 35°19' E 139°44'1311.3
2016-Feb-08 19:23N 35°06' E 139°44'  
2016-Feb-06 07:34N 34°05' E 135°00'1313.0
2016-Feb-06 06:33N 34°18' E 134°59'1212.2
2016-Feb-06 05:34N 34°27' E 135°09'1212.1
2016-Feb-06 04:34N 34°38' E 135°16'2 2.1
2016-Feb-06 03:34N 34°39' E 135°15'0 0.0
2016-Feb-06 02:34N 34°39' E 135°15'2 2.2
2016-Feb-06 01:34N 34°41' E 135°16'1 0.7
2016-Feb-06 00:33N 34°41' E 135°16'2 1.6
2016-Feb-05 23:33N 34°39' E 135°15'2 2.5
2016-Feb-05 22:34N 34°37' E 135°16'0 0.0
2016-Feb-05 21:34N 34°37' E 135°16'0 0.1
2016-Feb-05 20:34N 34°37' E 135°16'1211.8
2016-Feb-05 19:33N 34°36' E 135°02'10 0.8
2016-Feb-05 07:28N 34°34' E 134°50'1212.2
2016-Feb-05 06:28N 34°36' E 135°05'910.4
2016-Feb-05 05:33N 34°39' E 135°16'1 1.0
2016-Feb-05 04:33N 34°39' E 135°15'0 0.0
2016-Feb-05 03:33N 34°39' E 135°15'0 0.3
2016-Feb-05 02:33N 34°39' E 135°15'1 0.9
2016-Feb-05 01:32N 34°40' E 135°14'1 1.1
2016-Feb-05 00:33N 34°40' E 135°15'2 1.6
2016-Feb-04 23:33N 34°41' E 135°17'4 3.6
2016-Feb-04 22:33N 34°37' E 135°18'0 0.0
2016-Feb-04 21:33N 34°37' E 135°18'0 0.0
2016-Feb-04 20:33N 34°37' E 135°18'0 0.0
2016-Feb-04 19:33N 34°37' E 135°18'0 0.0
2016-Feb-04 18:33N 34°37' E 135°18'4 4.3
2016-Feb-04 17:33N 34°36' E 135°13'22 0.6
2016-Feb-03 07:06N 34°33' E 134°46'813.4
2016-Feb-03 06:32N 34°36' E 134°55'1212.0
2016-Feb-03 05:33N 34°36' E 135°09'8 7.7
2016-Feb-03 04:33N 34°41' E 135°17'2 1.9
2016-Feb-03 03:33N 34°40' E 135°19'1 0.8
2016-Feb-03 02:33N 34°39' E 135°19'  

Dump ship's entire track history